Time;durP1;ratioP1;P1;durP2;ratioP2;P2;SDS_P1;SDS_P2;PMS_P1;PMS_P2;Temp;Humidity;BMP_temperature;BMP_pressure;BME280_temperature;BME280_humidity;BME280_pressure;Samples;Min_cycle;Max_cycle;Signal;HPM_P1;HPM_P2
2021/04/15 00:01:16;;;;;;;11.40;10.00;;;22.20;52.10;;;;;;5095383;28;20442;-61
2021/04/15 00:03:43;;;;;;;9.30;8.32;;;22.20;52.10;;;;;;5094603;28;20028;-61
2021/04/15 00:06:15;;;;;;;11.57;8.98;;;22.20;52.10;;;;;;5077343;28;20034;-60
2021/04/15 00:08:42;;;;;;;11.02;8.05;;;22.20;52.10;;;;;;5076178;28;20081;-60
2021/04/15 00:11:10;;;;;;;12.10;8.70;;;22.20;52.20;;;;;;5095079;28;20035;-61
2021/04/15 00:13:39;;;;;;;10.38;8.30;;;22.20;52.20;;;;;;5076333;28;20073;-60
2021/04/15 00:16:07;;;;;;;11.02;7.53;;;22.20;52.20;;;;;;5094897;28;20125;-60
2021/04/15 00:18:33;;;;;;;8.68;7.30;;;22.20;52.20;;;;;;5076571;28;22311;-60
2021/04/15 00:21:00;;;;;;;8.80;7.43;;;22.20;52.10;;;;;;5094446;28;20059;-60
2021/04/15 00:23:26;;;;;;;10.73;6.88;;;22.20;52.20;;;;;;5094044;28;20481;-59
2021/04/15 00:25:53;;;;;;;7.43;6.47;;;22.20;52.70;;;;;;5093600;28;20035;-60
2021/04/15 00:28:19;;;;;;;7.63;6.55;;;22.20;52.10;;;;;;5093890;28;20060;-60
2021/04/15 00:30:47;;;;;;;7.82;6.65;;;22.20;52.20;;;;;;5094087;28;20024;-60
2021/04/15 00:33:13;;;;;;;7.80;6.78;;;22.20;52.30;;;;;;5094278;28;20044;-61
2021/04/15 00:35:40;;;;;;;8.68;6.63;;;22.20;52.30;;;;;;5094521;28;20150;-60
2021/04/15 00:38:07;;;;;;;9.18;5.93;;;22.20;52.20;;;;;;5076389;28;20023;-60
2021/04/15 00:40:36;;;;;;;7.82;5.80;;;22.10;52.30;;;;;;5094895;28;20454;-60
2021/04/15 00:43:03;;;;;;;7.57;5.43;;;22.20;52.30;;;;;;5094656;28;20028;-61
2021/04/15 00:45:37;;;;;;;6.85;5.30;;;22.20;52.30;;;;;;5094562;28;20476;-60
2021/04/15 00:48:20;;;;;;;6.05;5.45;;;22.20;52.40;;;;;;5094646;28;20043;-60
2021/04/15 00:51:05;;;;;;;5.53;5.03;;;22.20;52.90;;;;;;5074388;28;20063;-60
2021/04/15 00:53:39;;;;;;;6.97;5.10;;;22.20;52.30;;;;;;5076171;28;20532;-61
2021/04/15 00:56:07;;;;;;;6.30;5.00;;;22.20;52.30;;;;;;5094643;28;20125;-60
2021/04/15 00:58:34;;;;;;;5.25;4.72;;;22.20;52.30;;;;;;5075990;28;20016;-61
2021/04/15 01:01:00;;;;;;;5.75;4.97;;;22.20;52.30;;;;;;5094198;28;20153;-60
2021/04/15 01:03:27;;;;;;;6.22;4.30;;;22.20;52.20;;;;;;5075461;28;20389;-61
2021/04/15 01:05:53;;;;;;;6.30;4.43;;;22.20;52.30;;;;;;5093976;28;20437;-60
2021/04/15 01:08:19;;;;;;;4.35;3.95;;;22.20;52.40;;;;;;5094098;28;20028;-60
2021/04/15 01:11:04;;;;;;;6.15;4.10;;;22.20;52.30;;;;;;5092585;28;20040;-60
2021/04/15 01:13:48;;;;;;;5.45;4.05;;;22.20;52.50;;;;;;5094059;28;20034;-60
2021/04/15 01:16:46;;;;;;;5.00;4.10;;;22.20;52.60;;;;;;5074039;28;20059;-60
2021/04/15 01:19:33;;;;;;;6.05;4.07;;;22.20;52.50;;;;;;4975467;28;20039;-59
2021/04/15 01:22:18;;;;;;;4.15;3.75;;;22.20;52.50;;;;;;4992438;28;20046;-60
2021/04/15 01:24:50;;;;;;;5.22;4.18;;;22.20;52.50;;;;;;5000040;28;20440;-60
2021/04/15 01:27:37;;;;;;;6.28;3.97;;;22.20;52.50;;;;;;4992243;28;20034;-60
2021/04/15 01:30:35;;;;;;;5.72;3.90;;;22.20;52.70;;;;;;4991910;28;20500;-60
2021/04/15 01:33:10;;;;;;;4.10;3.30;;;22.20;52.60;;;;;;4934296;29;20063;-60
2021/04/15 01:35:42;;;;;;;4.90;3.75;;;22.20;52.80;;;;;;4933542;29;20058;-60
2021/04/15 01:38:16;;;;;;;4.35;3.88;;;22.10;52.80;;;;;;4923373;29;20043;-60
2021/04/15 01:40:56;;;;;;;4.07;3.55;;;22.10;52.90;;;;;;4934303;29;20040;-59
2021/04/15 01:43:34;;;;;;;3.95;3.15;;;22.10;53.10;;;;;;4922293;29;20467;-59
2021/04/15 01:46:01;;;;;;;3.78;3.40;;;22.10;53.10;;;;;;4915349;29;20040;-60
2021/04/15 01:48:37;;;;;;;4.10;2.72;;;22.10;53.00;;;;;;4926247;29;20031;-60
2021/04/15 01:51:15;;;;;;;6.80;3.85;;;22.10;53.10;;;;;;4933932;29;20040;-60
2021/04/15 01:53:49;;;;;;;4.10;2.92;;;22.10;53.20;;;;;;4920301;29;20036;-60
2021/04/15 01:56:37;;;;;;;6.50;3.10;;;22.10;53.20;;;;;;4957980;28;20038;-59
2021/04/15 01:59:11;;;;;;;4.38;3.38;;;22.10;53.30;;;;;;5007321;28;20034;-61
2021/04/15 02:01:44;;;;;;;5.05;3.60;;;22.10;53.30;;;;;;5010903;28;20057;-60
2021/04/15 02:04:28;;;;;;;5.25;2.90;;;22.10;53.30;;;;;;4994385;28;20042;-60
2021/04/15 02:07:05;;;;;;;4.53;3.08;;;22.10;53.30;;;;;;4975362;28;20122;-60
2021/04/15 02:09:31;;;;;;;4.05;3.25;;;22.10;53.40;;;;;;5044524;28;20040;-60
2021/04/15 02:12:29;;;;;;;6.07;3.60;;;22.10;53.30;;;;;;5092784;28;20107;-61
2021/04/15 02:15:18;;;;;;;7.05;3.15;;;22.10;53.40;;;;;;5028997;28;20052;-59
2021/04/15 02:17:45;;;;;;;5.18;3.10;;;22.10;53.40;;;;;;5030155;28;20087;-60
2021/04/15 02:20:23;;;;;;;8.35;3.72;;;22.10;53.40;;;;;;5030358;28;20615;-60
2021/04/15 02:23:04;;;;;;;5.95;3.03;;;22.10;53.40;;;;;;5029229;28;20025;-60
2021/04/15 02:25:34;;;;;;;;;;;22.10;53.50;;;;;;5014228;28;20077;-60
2021/04/15 02:28:31;;;;;;;5.45;2.90;;;22.10;53.30;;;;;;5029682;28;19917;-60
2021/04/15 02:31:22;;;;;;;7.57;3.50;;;22.20;53.30;;;;;;5030114;28;20034;-60
2021/04/15 02:33:54;;;;;;;4.63;3.13;;;22.10;53.30;;;;;;5010015;28;20029;-60
2021/04/15 02:36:24;;;;;;;6.50;2.88;;;22.10;53.30;;;;;;5010561;28;20034;-60
2021/04/15 02:38:53;;;;;;;;;;;22.10;53.40;;;;;;5010698;28;20038;-62
2021/04/15 02:41:26;;;;;;;6.10;2.65;;;22.10;53.30;;;;;;5010537;28;19920;-60
2021/04/15 02:44:17;;;;;;;8.60;3.10;;;22.20;53.20;;;;;;5010412;28;20038;-60
2021/04/15 02:46:52;;;;;;;6.90;3.35;;;22.10;53.30;;;;;;5010616;28;20049;-60
2021/04/15 02:49:19;;;;;;;7.53;3.80;;;22.10;53.30;;;;;;5010202;28;20143;-60
2021/04/15 02:51:55;;;;;;;4.63;2.80;;;22.10;53.30;;;;;;5054011;28;20052;-59
2021/04/15 02:54:34;;;;;;;5.57;3.00;;;22.10;53.40;;;;;;5072104;28;20081;-60
2021/04/15 02:57:09;;;;;;;7.40;3.38;;;22.10;54.10;;;;;;5072082;28;20094;-60
2021/04/15 02:59:46;;;;;;;5.43;3.03;;;22.10;53.50;;;;;;5072275;28;20481;-59
2021/04/15 03:02:20;;;;;;;6.28;2.70;;;22.10;53.50;;;;;;5071949;28;20060;-60
2021/04/15 03:04:52;;;;;;;3.72;3.15;;;22.10;53.50;;;;;;5072334;28;20029;-60
2021/04/15 03:07:21;;;;;;;6.63;3.10;;;22.10;53.60;;;;;;5071887;28;20028;-60
2021/04/15 03:09:48;;;;;;;6.50;3.25;;;22.10;53.60;;;;;;5072477;28;20363;-60
2021/04/15 03:12:25;;;;;;;5.65;3.00;;;22.10;53.60;;;;;;5050820;28;20125;-60
2021/04/15 03:14:57;;;;;;;7.80;2.80;;;22.10;53.60;;;;;;5052122;28;20033;-60
2021/04/15 03:17:24;;;;;;;5.97;2.90;;;22.10;53.60;;;;;;5068929;28;20032;-61
2021/04/15 03:19:56;;;;;;;5.47;3.03;;;22.10;53.60;;;;;;5071992;28;20512;-60
2021/04/15 03:22:44;;;;;;;8.50;2.92;;;22.10;53.60;;;;;;5071974;28;20033;-60
2021/04/15 03:25:10;;;;;;;4.55;3.17;;;22.10;53.60;;;;;;5071622;28;20036;-60
2021/04/15 03:27:59;;;;;;;7.65;3.08;;;22.10;53.60;;;;;;5071680;28;20334;-60
2021/04/15 03:30:31;;;;;;;4.25;2.65;;;22.10;53.70;;;;;;5071797;28;20043;-60
2021/04/15 03:33:09;;;;;;;6.25;3.00;;;22.10;53.70;;;;;;5073033;28;20043;-60
2021/04/15 03:35:43;;;;;;;5.93;3.13;;;22.10;53.70;;;;;;5113755;28;20031;-60
2021/04/15 03:38:24;;;;;;;5.43;2.72;;;22.10;53.70;;;;;;5095887;28;20028;-61
2021/04/15 03:40:55;;;;;;;;;;;22.10;53.80;;;;;;5082039;28;20024;-59
2021/04/15 03:43:25;;;;;;;;;;;22.10;53.60;;;;;;5116709;28;19907;-61
2021/04/15 03:46:04;;;;;;;6.57;2.87;;;22.20;53.50;;;;;;5112417;28;19919;-60
2021/04/15 03:48:35;;;;;;;6.95;2.65;;;22.20;53.50;;;;;;5077871;28;20038;-60
2021/04/15 03:51:06;;;;;;;6.35;3.15;;;22.20;53.60;;;;;;5095727;28;20496;-60
2021/04/15 03:53:39;;;;;;;7.60;2.90;;;22.20;53.70;;;;;;5097616;28;20040;-60
2021/04/15 03:56:12;;;;;;;7.55;2.90;;;22.10;53.80;;;;;;5115926;28;20026;-60
2021/04/15 03:58:55;;;;;;;7.35;2.63;;;22.10;53.70;;;;;;5113234;28;20080;-60
2021/04/15 04:01:29;;;;;;;5.60;2.83;;;22.10;53.90;;;;;;5095678;28;20060;-60
2021/04/15 04:04:07;;;;;;;9.10;3.83;;;22.10;53.90;;;;;;5097670;28;20374;-60
2021/04/15 04:06:41;;;;;;;5.90;2.47;;;22.10;54.00;;;;;;5097762;28;20894;-59
2021/04/15 04:09:25;;;;;;;7.45;3.38;;;22.10;54.00;;;;;;5109789;28;20032;-60
2021/04/15 04:11:53;;;;;;;8.07;2.75;;;22.10;54.00;;;;;;5095278;28;20040;-60
2021/04/15 04:14:37;;;;;;;6.82;2.67;;;22.10;53.90;;;;;;5101432;28;20046;-60
2021/04/15 04:17:16;;;;;;;9.65;3.45;;;22.10;54.00;;;;;;5097149;28;20047;-60
2021/04/15 04:19:50;;;;;;;9.95;3.17;;;22.10;54.00;;;;;;5105672;28;20344;-60
2021/04/15 04:22:50;;;;;;;7.15;3.17;;;22.10;54.00;;;;;;5094967;28;20031;-60
2021/04/15 04:25:47;;;;;;;4.78;2.70;;;22.10;54.00;;;;;;5108134;28;20055;-60
2021/04/15 04:28:19;;;;;;;6.80;3.45;;;22.10;54.00;;;;;;5110892;28;20393;-60
2021/04/15 04:31:24;;;;;;;6.18;2.60;;;22.10;54.10;;;;;;5079823;28;20167;-59
2021/04/15 04:33:53;;;;;;;6.60;2.63;;;22.10;54.10;;;;;;5095081;28;20432;-60
2021/04/15 04:36:22;;;;;;;7.85;3.00;;;22.10;54.00;;;;;;5097103;28;20065;-60
2021/04/15 04:38:51;;;;;;;6.60;2.97;;;22.10;54.10;;;;;;5115159;28;20476;-60
2021/04/15 04:41:30;;;;;;;6.40;2.55;;;22.10;54.40;;;;;;5095848;28;20069;-60
2021/04/15 04:44:10;;;;;;;4.65;2.53;;;22.00;54.30;;;;;;5093923;28;20028;-60
2021/04/15 04:46:46;;;;;;;6.50;2.80;;;22.00;54.40;;;;;;5074330;28;20028;-60
2021/04/15 04:49:40;;;;;;;7.30;2.65;;;22.00;54.50;;;;;;5077763;28;20060;-60
2021/04/15 04:52:28;;;;;;;7.20;3.00;;;22.00;54.50;;;;;;5075160;28;20067;-60
2021/04/15 04:54:54;;;;;;;11.93;3.15;;;22.00;54.50;;;;;;5100850;28;20074;-61
2021/04/15 04:57:28;;;;;;;5.63;2.70;;;22.00;54.40;;;;;;5114978;28;20023;-61
2021/04/15 05:00:09;;;;;;;6.65;2.97;;;22.00;54.60;;;;;;5111377;28;20015;-60
2021/04/15 05:02:35;;;;;;;8.35;3.17;;;22.00;54.60;;;;;;5094003;28;20802;-60
2021/04/15 05:05:05;;;;;;;6.82;2.58;;;22.00;54.50;;;;;;5101160;28;20077;-60
2021/04/15 05:07:35;;;;;;;8.00;2.78;;;22.00;54.70;;;;;;5101625;28;20028;-60
2021/04/15 05:10:02;;;;;;;6.25;2.72;;;22.00;54.80;;;;;;5095101;28;20016;-60
2021/04/15 05:12:32;;;;;;;9.20;3.07;;;22.00;54.80;;;;;;5093756;28;20020;-60
2021/04/15 05:14:58;;;;;;;9.77;3.10;;;22.00;54.80;;;;;;5099318;28;20249;-61
2021/04/15 05:17:36;;;;;;;4.45;2.50;;;22.00;54.80;;;;;;5114541;28;20285;-60
2021/04/15 05:20:13;;;;;;;8.98;2.65;;;22.00;54.90;;;;;;5108851;28;20016;-60
2021/04/15 05:22:47;;;;;;;6.57;3.03;;;21.90;54.80;;;;;;5094095;28;20024;-60
2021/04/15 05:25:19;;;;;;;7.18;2.80;;;21.90;54.90;;;;;;5099895;28;20927;-60
2021/04/15 05:27:46;;;;;;;6.25;2.75;;;21.90;54.80;;;;;;5114346;28;20050;-60
2021/04/15 05:30:47;;;;;;;5.25;2.97;;;21.90;54.70;;;;;;5113478;28;20084;-65
2021/04/15 05:33:20;;;;;;;6.32;2.58;;;21.90;54.80;;;;;;5051213;28;20470;-65
2021/04/15 05:36:00;;;;;;;5.35;3.22;;;21.90;54.80;;;;;;5038539;28;20033;-64
2021/04/15 05:38:27;;;;;;;12.75;3.90;;;21.90;54.80;;;;;;5031951;28;20431;-65
2021/04/15 05:40:56;;;;;;;10.05;4.07;;;21.90;54.70;;;;;;5044727;28;20040;-63
2021/04/15 05:43:48;;;;;;;9.32;3.08;;;21.90;54.70;;;;;;5034908;28;20064;-64
2021/04/15 05:46:21;;;;;;;9.43;3.40;;;21.90;55.40;;;;;;5032712;28;20555;-63
2021/04/15 05:48:53;;;;;;;10.60;2.80;;;21.90;54.70;;;;;;5034198;28;20052;-64
2021/04/15 05:51:32;;;;;;;7.05;2.88;;;21.90;54.60;;;;;;5018217;28;20069;-65
2021/04/15 05:54:05;;;;;;;7.70;2.72;;;21.90;54.70;;;;;;5051297;28;20164;-65
2021/04/15 05:56:53;;;;;;;7.22;2.80;;;21.90;54.60;;;;;;5033121;28;20518;-65
2021/04/15 05:59:27;;;;;;;7.10;3.35;;;21.90;54.70;;;;;;5031368;28;20053;-64
2021/04/15 06:02:21;;;;;;;9.10;3.45;;;21.90;54.50;;;;;;5032006;28;20388;-64
2021/04/15 06:05:05;;;;;;;7.93;3.10;;;21.90;54.60;;;;;;5035654;28;20041;-64
2021/04/15 06:07:32;;;;;;;9.35;3.63;;;21.90;54.50;;;;;;5036359;28;20068;-65
2021/04/15 06:09:58;;;;;;;10.07;3.65;;;21.90;54.50;;;;;;5083265;28;20108;-64
2021/04/15 06:12:32;;;;;;;7.95;3.15;;;21.90;54.50;;;;;;5113795;28;20028;-64
2021/04/15 06:15:09;;;;;;;8.25;3.08;;;21.90;54.50;;;;;;5111245;28;20039;-64
2021/04/15 06:17:41;;;;;;;7.18;2.75;;;21.90;54.60;;;;;;5093149;28;20039;-64
2021/04/15 06:20:10;;;;;;;7.57;3.90;;;21.90;54.70;;;;;;5093919;28;20028;-64
2021/04/15 06:22:44;;;;;;;10.02;3.42;;;21.90;54.60;;;;;;5092755;28;20054;-64
2021/04/15 06:25:24;;;;;;;8.40;3.80;;;21.90;54.70;;;;;;5098480;28;20488;-64
2021/04/15 06:27:51;;;;;;;9.63;3.55;;;21.90;54.70;;;;;;5095107;28;20028;-64
2021/04/15 06:30:26;;;;;;;8.95;4.07;;;21.90;54.50;;;;;;5111076;28;20024;-64
2021/04/15 06:33:10;;;;;;;7.82;3.15;;;21.90;54.60;;;;;;5112886;28;20055;-65
2021/04/15 06:35:37;;;;;;;7.90;3.38;;;21.90;55.10;;;;;;5103693;28;20028;-64
2021/04/15 06:38:12;;;;;;;10.82;3.70;;;22.00;54.50;;;;;;5092827;28;20032;-64
2021/04/15 06:41:09;;;;;;;9.18;3.75;;;21.90;54.50;;;;;;5093789;28;20110;-64
2021/04/15 06:44:00;;;;;;;8.65;4.13;;;21.90;54.60;;;;;;5092722;28;20039;-65
2021/04/15 06:46:41;;;;;;;6.60;3.45;;;21.90;54.50;;;;;;5093502;28;20028;-68
2021/04/15 06:49:35;;;;;;;6.43;3.45;;;22.00;54.60;;;;;;5092754;28;20094;-64
2021/04/15 06:52:10;;;;;;;7.80;4.30;;;21.90;54.50;;;;;;5093684;28;20027;-64
2021/04/15 06:54:52;;;;;;;10.52;4.82;;;22.00;54.50;;;;;;5092454;28;20052;-64
2021/04/15 06:57:38;;;;;;;8.82;4.72;;;21.90;54.60;;;;;;5072252;28;20082;-64
2021/04/15 07:00:26;;;;;;;15.60;5.22;;;21.90;54.60;;;;;;5065760;28;20036;-64
2021/04/15 07:03:23;;;;;;;8.50;4.88;;;21.90;54.60;;;;;;5113347;28;20084;-64
2021/04/15 07:05:54;;;;;;;118.95;106.03;;;21.90;54.70;;;;;;5111452;28;20076;-65
2021/04/15 07:08:30;;;;;;;60.17;51.78;;;22.00;54.80;;;;;;5115459;28;20028;-62
2021/04/15 07:11:33;;;;;;;76.43;67.25;;;21.90;54.90;;;;;;5086662;28;20035;-64
2021/04/15 07:14:17;;;;;;;74.55;66.35;;;22.00;54.90;;;;;;5103526;28;20015;-63
2021/04/15 07:16:52;;;;;;;62.60;54.67;;;21.90;54.90;;;;;;5117045;28;20077;-64
2021/04/15 07:19:32;;;;;;;60.05;53.38;;;22.00;54.90;;;;;;5115096;28;20018;-63
2021/04/15 07:22:01;;;;;;;54.58;48.63;;;21.90;54.90;;;;;;5098602;28;20035;-63
2021/04/15 07:24:38;;;;;;;53.80;46.85;;;22.00;54.90;;;;;;5106367;28;20089;-63
2021/04/15 07:27:14;;;;;;;49.65;40.75;;;22.00;54.90;;;;;;5078248;28;20082;-63
2021/04/15 07:30:11;;;;;;;43.63;34.97;;;21.90;55.00;;;;;;5107472;28;20051;-63
2021/04/15 07:32:43;;;;;;;36.30;28.23;;;21.90;55.00;;;;;;5116608;28;20481;-63
2021/04/15 07:35:15;;;;;;;34.75;27.60;;;22.00;54.90;;;;;;5101488;28;20028;-63
2021/04/15 07:38:05;;;;;;;34.25;28.73;;;22.00;54.90;;;;;;5096396;28;20046;-63
2021/04/15 07:40:46;;;;;;;78.85;70.40;;;21.90;55.00;;;;;;5076064;28;20028;-63
2021/04/15 07:43:42;;;;;;;57.88;48.40;;;22.00;55.10;;;;;;5078058;28;20028;-66
2021/04/15 07:46:36;;;;;;;53.40;41.75;;;21.90;55.30;;;;;;5075611;28;20510;-66
2021/04/15 07:49:39;;;;;;;36.67;27.90;;;21.90;55.30;;;;;;5081648;28;20050;-66
2021/04/15 07:52:13;;;;;;;25.60;14.07;;;21.90;55.50;;;;;;5113150;28;20027;-66
2021/04/15 07:54:58;;;;;;;19.50;9.95;;;21.90;56.10;;;;;;5103148;28;20122;-66
2021/04/15 07:57:58;;;;;;;18.25;6.47;;;21.80;55.60;;;;;;5075403;28;20040;-66
2021/04/15 08:00:58;;;;;;;13.27;5.40;;;21.80;55.70;;;;;;5089607;28;20043;-66
2021/04/15 08:04:03;;;;;;;15.52;4.97;;;21.70;55.80;;;;;;5095719;28;20035;-66
2021/04/15 08:06:52;;;;;;;14.45;5.93;;;21.70;55.80;;;;;;5095331;28;20083;-66
2021/04/15 08:09:53;;;;;;;10.10;4.63;;;21.60;55.90;;;;;;5077435;28;20051;-66
2021/04/15 08:12:35;;;;;;;15.35;4.60;;;21.60;55.90;;;;;;5040493;28;20492;-66
2021/04/15 08:15:51;;;;;;;11.75;4.20;;;21.50;56.20;;;;;;5095354;28;20058;-67
2021/04/15 08:18:37;;;;;;;150.77;130.85;;;21.50;56.20;;;;;;5032888;28;20056;-64
2021/04/15 08:21:19;;;;;;;74.85;65.80;;;21.50;56.20;;;;;;5072457;28;20128;-63
2021/04/15 08:24:07;;;;;;;63.95;54.05;;;21.50;56.40;;;;;;5095451;28;20058;-64
2021/04/15 08:26:41;;;;;;;58.03;48.30;;;21.40;56.40;;;;;;5095775;28;20406;-60
2021/04/15 08:29:45;;;;;;;46.63;36.58;;;21.40;56.50;;;;;;5095231;28;20104;-61
2021/04/15 08:32:32;;;;;;;37.35;28.08;;;21.40;56.70;;;;;;5076817;28;20048;-60
2021/04/15 08:35:14;;;;;;;32.63;23.13;;;21.40;56.70;;;;;;5083968;28;20035;-61
2021/04/15 08:38:23;;;;;;;27.50;21.48;;;21.40;56.90;;;;;;5074664;28;20074;-62
2021/04/15 08:41:01;;;;;;;23.80;20.38;;;21.40;56.80;;;;;;5074521;28;20123;-62
2021/04/15 08:44:05;;;;;;;24.63;19.27;;;21.40;56.80;;;;;;5056705;28;20132;-63
2021/04/15 08:46:57;;;;;;;22.15;16.20;;;21.40;56.70;;;;;;5074353;28;20024;-62
2021/04/15 08:50:00;;;;;;;24.80;14.30;;;21.40;56.80;;;;;;5074106;28;20451;-62
2021/04/15 08:52:39;;;;;;;17.50;12.65;;;21.40;56.70;;;;;;5056722;28;20078;-62
2021/04/15 08:55:45;;;;;;;18.75;12.07;;;21.40;56.70;;;;;;5056738;28;20043;-62
2021/04/15 08:58:45;;;;;;;17.85;12.15;;;21.40;56.60;;;;;;5006161;28;20030;-65
2021/04/15 09:01:20;;;;;;;;;;;21.50;56.60;;;;;;4935608;28;20036;-65
2021/04/15 09:04:05;;;;;;;14.85;10.50;;;21.50;56.40;;;;;;4993223;28;19910;-65
2021/04/15 09:06:40;;;;;;;16.33;10.43;;;21.50;56.40;;;;;;5003044;28;20054;-65
2021/04/15 09:09:20;;;;;;;188.23;167.40;;;21.50;56.30;;;;;;4996281;28;20070;-64
2021/04/15 09:12:28;;;;;;;137.57;122.80;;;21.50;56.50;;;;;;4993257;28;20451;-65
2021/04/15 09:15:05;;;;;;;129.82;116.07;;;21.50;56.60;;;;;;4993011;28;20030;-66
2021/04/15 09:17:38;;;;;;;105.30;94.32;;;21.50;56.60;;;;;;5010561;28;20030;-65
2021/04/15 09:20:36;;;;;;;82.38;73.40;;;21.50;56.60;;;;;;4995967;28;20042;-60
2021/04/15 09:23:31;;;;;;;75.25;67.13;;;21.60;56.70;;;;;;5010548;28;20226;-62
2021/04/15 09:26:24;;;;;;;66.28;59.00;;;21.60;56.90;;;;;;5000248;28;20551;-59
2021/04/15 09:29:18;;;;;;;66.82;58.88;;;21.60;56.90;;;;;;4998658;28;20038;-65
2021/04/15 09:31:55;;;;;;;60.15;53.58;;;21.60;56.90;;;;;;5000172;28;20094;-63
2021/04/15 09:34:58;;;;;;;56.38;50.42;;;21.60;57.00;;;;;;5070321;28;20501;-62
2021/04/15 09:37:36;;;;;;;52.97;47.47;;;21.60;57.00;;;;;;5091202;28;20032;-61
2021/04/15 09:40:09;;;;;;;49.25;44.00;;;21.70;57.10;;;;;;5071466;28;20055;-64
2021/04/15 09:43:05;;;;;;;48.95;43.47;;;21.70;57.00;;;;;;5090448;28;20039;-66
2021/04/15 09:45:52;;;;;;;49.13;41.72;;;21.80;57.30;;;;;;5055320;28;20490;-66
2021/04/15 09:48:47;;;;;;;42.72;36.58;;;21.80;57.50;;;;;;5084126;28;20439;-64
2021/04/15 09:51:33;;;;;;;42.55;37.67;;;21.80;57.50;;;;;;5093943;28;20056;-61
2021/04/15 09:54:37;;;;;;;46.58;41.60;;;21.90;57.70;;;;;;5093298;28;20032;-59
2021/04/15 09:57:31;;;;;;;46.45;41.42;;;21.90;58.10;;;;;;5058590;28;20505;-69
2021/04/15 10:00:25;;;;;;;49.25;39.88;;;22.00;58.40;;;;;;5093234;28;20032;-61
2021/04/15 10:03:17;;;;;;;41.33;36.95;;;22.00;58.70;;;;;;5093135;28;20377;-60
2021/04/15 10:05:52;;;;;;;36.38;32.42;;;22.10;58.80;;;;;;5075050;28;20027;-62
2021/04/15 10:08:29;;;;;;;36.80;32.65;;;22.20;58.60;;;;;;5092086;28;20099;-60
2021/04/15 10:11:05;;;;;;;37.45;28.60;;;22.20;58.70;;;;;;5093115;28;20449;-64
2021/04/15 10:13:56;;;;;;;36.38;24.95;;;22.20;58.60;;;;;;5092960;28;20130;-62
2021/04/15 10:16:32;;;;;;;20.23;14.52;;;22.20;58.40;;;;;;5093311;28;20036;-62
2021/04/15 10:19:10;;;;;;;19.15;15.65;;;22.30;57.70;;;;;;5092776;28;20103;-61
2021/04/15 10:21:42;;;;;;;22.80;14.48;;;22.30;57.50;;;;;;5092880;28;20372;-61
2021/04/15 10:24:26;;;;;;;21.02;15.10;;;22.30;57.40;;;;;;5070011;28;20037;-61
2021/04/15 10:27:06;;;;;;;17.83;12.13;;;22.30;57.40;;;;;;5073164;28;20104;-62
2021/04/15 10:29:58;;;;;;;16.75;9.95;;;22.30;57.10;;;;;;5091443;28;20039;-62
2021/04/15 10:32:39;;;;;;;16.48;9.95;;;22.30;57.10;;;;;;5092750;28;20498;-61
2021/04/15 10:35:22;;;;;;;13.40;7.68;;;22.30;56.90;;;;;;5074345;28;20516;-62
2021/04/15 10:38:06;;;;;;;11.77;6.95;;;22.30;56.70;;;;;;5092153;28;20040;-59
2021/04/15 10:40:52;;;;;;;12.40;7.13;;;22.30;56.80;;;;;;5074653;28;20517;-58
2021/04/15 10:43:36;;;;;;;16.73;7.97;;;22.30;56.70;;;;;;5071651;28;20120;-57
2021/04/15 10:46:21;;;;;;;13.77;6.88;;;22.30;56.90;;;;;;5074105;28;20115;-57
2021/04/15 10:49:01;;;;;;;12.20;6.25;;;22.30;56.70;;;;;;5092660;28;20024;-57
2021/04/15 10:51:46;;;;;;;13.98;6.18;;;22.30;56.80;;;;;;5092434;28;20550;-57
2021/04/15 10:54:32;;;;;;;16.08;5.68;;;22.30;56.70;;;;;;5092399;28;20039;-57
2021/04/15 10:57:13;;;;;;;15.25;5.63;;;22.20;56.60;;;;;;5073244;28;20374;-56
2021/04/15 10:59:42;;;;;;;9.60;4.68;;;22.30;56.70;;;;;;5054337;28;20051;-56
2021/04/15 11:02:34;;;;;;;15.52;6.22;;;22.30;56.60;;;;;;5069963;28;20604;-57
2021/04/15 11:05:20;;;;;;;12.98;4.95;;;22.30;56.70;;;;;;5072282;28;20097;-57
2021/04/15 11:07:48;;;;;;;11.90;5.43;;;22.30;56.70;;;;;;5071051;28;20039;-57
2021/04/15 11:10:25;;;;;;;14.65;5.97;;;22.30;56.60;;;;;;5091792;28;20024;-58
2021/04/15 11:13:06;;;;;;;16.35;5.43;;;22.20;56.60;;;;;;5091851;28;20020;-57
2021/04/15 11:16:01;;;;;;;10.43;5.38;;;22.30;56.70;;;;;;5083089;28;20382;-57
2021/04/15 11:18:37;;;;;;;10.38;6.28;;;22.30;56.70;;;;;;5082180;28;20394;-57
2021/04/15 11:21:22;;;;;;;22.10;8.77;;;22.30;56.80;;;;;;5092369;28;20028;-57
2021/04/15 11:23:50;;;;;;;11.73;7.22;;;22.30;57.00;;;;;;5091959;28;20032;-57
2021/04/15 11:26:21;;;;;;;12.15;7.65;;;22.30;57.10;;;;;;5092356;28;20035;-57
2021/04/15 11:28:50;;;;;;;12.85;7.18;;;22.30;57.20;;;;;;5091991;28;20107;-57
2021/04/15 11:31:26;;;;;;;14.00;8.25;;;22.40;57.30;;;;;;5092505;28;20066;-57
2021/04/15 11:34:06;;;;;;;15.80;7.63;;;22.40;57.40;;;;;;5090325;28;20463;-57
2021/04/15 11:36:35;;;;;;;11.63;6.82;;;22.40;57.40;;;;;;5069759;28;20036;-57
2021/04/15 11:39:04;;;;;;;15.27;7.43;;;22.40;57.10;;;;;;5074068;28;20533;-58
2021/04/15 11:41:40;;;;;;;11.82;6.88;;;22.40;57.10;;;;;;5079514;28;20031;-57
2021/04/15 11:44:09;;;;;;;16.02;6.75;;;22.40;57.10;;;;;;5078655;28;20028;-56
2021/04/15 11:46:47;;;;;;;10.13;5.32;;;22.50;57.00;;;;;;5071645;28;20078;-57
2021/04/15 11:49:20;;;;;;;11.82;5.22;;;22.40;56.70;;;;;;5083787;28;20027;-57
2021/04/15 11:51:58;;;;;;;10.20;6.47;;;22.50;56.70;;;;;;5092218;28;20135;-57
2021/04/15 11:54:35;;;;;;;12.77;5.80;;;22.40;56.80;;;;;;5086363;28;20036;-58
2021/04/15 11:57:19;;;;;;;9.00;5.40;;;22.50;56.80;;;;;;5075407;28;20098;-57
2021/04/15 11:59:59;;;;;;;10.75;5.90;;;22.50;56.70;;;;;;5090013;28;20046;-57
2021/04/15 12:02:31;;;;;;;8.80;4.95;;;22.50;56.60;;;;;;5093733;28;20474;-57
2021/04/15 12:05:21;;;;;;;10.38;4.95;;;22.50;56.50;;;;;;5077188;28;20461;-58
2021/04/15 12:08:18;;;;;;;6.90;4.00;;;22.50;56.50;;;;;;5083038;28;20052;-58
2021/04/15 12:10:55;;;;;;;11.85;4.95;;;22.50;56.40;;;;;;5075090;28;20269;-58
2021/04/15 12:13:22;;;;;;;12.77;4.22;;;22.50;56.30;;;;;;5075482;28;20035;-57
2021/04/15 12:16:13;;;;;;;11.48;4.47;;;22.60;56.40;;;;;;5074900;28;20047;-58
2021/04/15 12:19:05;;;;;;;9.13;4.30;;;22.50;56.30;;;;;;5074098;28;20533;-58
2021/04/15 12:21:52;;;;;;;9.48;4.70;;;22.60;56.30;;;;;;5000091;28;20083;-57
2021/04/15 12:24:44;;;;;;;8.02;4.22;;;22.60;56.40;;;;;;5009868;28;20026;-58
2021/04/15 12:27:26;;;;;;;7.18;3.58;;;22.60;56.20;;;;;;5029396;28;20400;-57
2021/04/15 12:30:19;;;;;;;7.15;3.28;;;22.60;56.10;;;;;;5024596;28;20424;-57
2021/04/15 12:33:24;;;;;;;7.22;3.22;;;22.60;56.10;;;;;;5003605;28;20272;-57
2021/04/15 12:36:27;;;;;;;8.82;3.10;;;22.60;56.00;;;;;;5030686;28;20527;-58
2021/04/15 12:39:09;;;;;;;5.57;2.83;;;22.60;55.90;;;;;;4992630;28;20512;-57
2021/04/15 12:41:38;;;;;;;6.25;2.45;;;22.60;56.00;;;;;;4976767;28;20039;-57
2021/04/15 12:44:22;;;;;;;7.85;3.00;;;22.60;55.90;;;;;;4975985;28;20066;-58
2021/04/15 12:46:50;;;;;;;8.05;2.97;;;22.60;56.00;;;;;;4976646;28;20043;-57
2021/04/15 12:49:21;;;;;;;9.50;3.10;;;22.60;55.90;;;;;;4992878;28;20097;-57
2021/04/15 12:51:56;;;;;;;8.07;2.75;;;22.60;55.90;;;;;;4976581;28;20046;-57
2021/04/15 12:54:29;;;;;;;8.18;3.05;;;22.60;55.90;;;;;;4976256;28;20223;-57
2021/04/15 12:57:00;;;;;;;7.75;3.47;;;22.60;55.90;;;;;;4973421;28;20034;-56
2021/04/15 12:59:42;;;;;;;9.65;2.78;;;22.70;55.80;;;;;;5011197;28;20439;-56
2021/04/15 13:02:26;;;;;;;7.72;3.05;;;22.70;55.80;;;;;;5012532;28;20029;-57
2021/04/15 13:05:00;;;;;;;6.47;2.78;;;22.70;55.70;;;;;;4996788;28;20045;-57
2021/04/15 13:07:26;;;;;;;7.82;3.28;;;22.70;55.70;;;;;;5032001;28;20091;-57
2021/04/15 13:10:14;;;;;;;10.98;3.28;;;22.70;55.70;;;;;;4999011;28;20029;-57
2021/04/15 13:12:48;;;;;;;11.52;3.53;;;22.70;55.70;;;;;;5053440;28;20040;-57
2021/04/15 13:15:23;;;;;;;8.98;2.90;;;22.70;55.70;;;;;;5094403;28;20424;-57
2021/04/15 13:17:53;;;;;;;7.47;2.47;;;22.70;55.70;;;;;;5058564;28;20027;-57
2021/04/15 13:20:19;;;;;;;7.90;2.70;;;22.80;55.60;;;;;;5075880;28;20040;-57
2021/04/15 13:22:50;;;;;;;10.75;2.97;;;22.80;55.60;;;;;;5093991;28;20038;-58
2021/04/15 13:25:18;;;;;;;15.35;3.28;;;22.80;55.50;;;;;;5093576;28;20426;-57
2021/04/15 13:28:06;;;;;;;6.60;2.83;;;22.80;55.40;;;;;;5094098;28;20028;-56
2021/04/15 13:30:41;;;;;;;7.10;2.58;;;22.80;55.50;;;;;;5093833;28;20032;-57
2021/04/15 13:33:42;;;;;;;9.00;2.53;;;22.80;55.30;;;;;;5092648;28;20044;-57
2021/04/15 13:36:07;;;;;;;;;;;22.80;55.20;;;;;;5093366;28;20086;-59
2021/04/15 13:38:42;;;;;;;10.88;2.80;;;22.80;55.50;;;;;;5093848;28;20440;-57
2021/04/15 13:41:27;;;;;;;10.05;3.13;;;22.90;55.10;;;;;;5089109;28;20016;-58
2021/04/15 13:44:11;;;;;;;8.93;2.58;;;22.90;55.00;;;;;;5075430;28;20024;-58